<?xml version="1.0" encoding="UTF-8" standalone="no" ?>
<gpx xmlns="http://www.topografix.com/GPX/1/1" xmlns:xsi="http://www.w3.org/2001/XMLSchema-instance" xsi:schemaLocation="http://www.topografix.com/GPX/1/1 http://www.topografix.com/GPX/1/1/gpx.xsd" version="1.1" creator="VisuGPX - https://www.visugpx.com">
  <metadata>
    <name>Marche populaire de Koestlach (05/03/2016)</name>
    <desc><![CDATA[Marche populaire de Koestlach (05/03/2016)
 >>> parcours de 10 km]]></desc>
  </metadata>
  <trk>
    <name><![CDATA[2016-03-05 10:33]]></name>
    <desc><![CDATA[<h1>OruxMaps</h1><br /><hr align="center" width="480" style="height: 2px; width: 517px"/><h2>Nom: 2016-03-05 10:33</h2><br /><p>Temps de départ: 03/05/2016 10:35</p><p>Temps d'arrivée: 03/05/2016 12:10</p><p>Distance: 9,7km (01:34)</p><p>Temps déplacement: 01:19</p><p>Vitesse moyenne: 6,1km/h</p><p>Vitesse moyenne: 7,3km/h</p><p>Vitess Max.: 11,6km/h</p><p>Altitude minimale: 451m</p><p>Altitude maximale: 649m</p><p>Vitesse d'élévation: 408,1m/h</p><p>Vitesse de descente: -470,1m/h</p><p>Gain Altitude: 297m</p><p>Perte Altitude: -302m</p><p>Temps d'élévation: 00:43</p><p>Temps de descente: 00:38</p><hr align="center" width="480" style="height: 2px; width: 517px"/>]]></desc>
    <trkseg>
      <trkpt lat="47.50817" lon="7.26592">
        <ele>468</ele>
        <time>2016-03-05T09:35:31Z</time>
      </trkpt>
      <trkpt lat="47.50801" lon="7.26607">
        <ele>457.16</ele>
        <time>2016-03-05T09:35:44Z</time>
      </trkpt>
      <trkpt lat="47.50785" lon="7.26622">
        <ele>455.79</ele>
        <time>2016-03-05T09:35:56Z</time>
      </trkpt>
      <trkpt lat="47.5078" lon="7.26595">
        <ele>452.12</ele>
        <time>2016-03-05T09:36:07Z</time>
      </trkpt>
      <trkpt lat="47.5078" lon="7.26568">
        <ele>454.3</ele>
        <time>2016-03-05T09:36:18Z</time>
      </trkpt>
      <trkpt lat="47.50777" lon="7.26542">
        <ele>456.05</ele>
        <time>2016-03-05T09:36:28Z</time>
      </trkpt>
      <trkpt lat="47.50774" lon="7.26515">
        <ele>458.79</ele>
        <time>2016-03-05T09:36:40Z</time>
      </trkpt>
      <trkpt lat="47.50769" lon="7.26486">
        <ele>460.13</ele>
        <time>2016-03-05T09:36:52Z</time>
      </trkpt>
      <trkpt lat="47.50761" lon="7.26461">
        <ele>461.53</ele>
        <time>2016-03-05T09:37:02Z</time>
      </trkpt>
      <trkpt lat="47.50752" lon="7.26438">
        <ele>461.93</ele>
        <time>2016-03-05T09:37:14Z</time>
      </trkpt>
      <trkpt lat="47.50742" lon="7.26415">
        <ele>462.21</ele>
        <time>2016-03-05T09:37:24Z</time>
      </trkpt>
      <trkpt lat="47.50736" lon="7.26389">
        <ele>461.8</ele>
        <time>2016-03-05T09:37:35Z</time>
      </trkpt>
      <trkpt lat="47.50733" lon="7.26361">
        <ele>461</ele>
        <time>2016-03-05T09:37:46Z</time>
      </trkpt>
      <trkpt lat="47.5073" lon="7.26335">
        <ele>460.13</ele>
        <time>2016-03-05T09:37:56Z</time>
      </trkpt>
      <trkpt lat="47.50724" lon="7.26307">
        <ele>460.08</ele>
        <time>2016-03-05T09:38:07Z</time>
      </trkpt>
      <trkpt lat="47.50718" lon="7.2628">
        <ele>460.81</ele>
        <time>2016-03-05T09:38:19Z</time>
      </trkpt>
      <trkpt lat="47.50715" lon="7.26252">
        <ele>461.16</ele>
        <time>2016-03-05T09:38:31Z</time>
      </trkpt>
      <trkpt lat="47.50713" lon="7.26225">
        <ele>461.65</ele>
        <time>2016-03-05T09:38:42Z</time>
      </trkpt>
      <trkpt lat="47.50708" lon="7.26197">
        <ele>461.04</ele>
        <time>2016-03-05T09:38:53Z</time>
      </trkpt>
      <trkpt lat="47.50709" lon="7.26169">
        <ele>460.66</ele>
        <time>2016-03-05T09:39:05Z</time>
      </trkpt>
      <trkpt lat="47.50709" lon="7.2614">
        <ele>459.85</ele>
        <time>2016-03-05T09:39:17Z</time>
      </trkpt>
      <trkpt lat="47.50705" lon="7.26114">
        <ele>459.05</ele>
        <time>2016-03-05T09:39:27Z</time>
      </trkpt>
      <trkpt lat="47.50701" lon="7.26086">
        <ele>456.29</ele>
        <time>2016-03-05T09:39:38Z</time>
      </trkpt>
      <trkpt lat="47.50701" lon="7.26056">
        <ele>454.71</ele>
        <time>2016-03-05T09:39:48Z</time>
      </trkpt>
      <trkpt lat="47.50702" lon="7.26028">
        <ele>452.94</ele>
        <time>2016-03-05T09:40:00Z</time>
      </trkpt>
      <trkpt lat="47.50702" lon="7.26">
        <ele>452.46</ele>
        <time>2016-03-05T09:40:11Z</time>
      </trkpt>
      <trkpt lat="47.50702" lon="7.25971">
        <ele>451.5</ele>
        <time>2016-03-05T09:40:22Z</time>
      </trkpt>
      <trkpt lat="47.50703" lon="7.25943">
        <ele>451.14</ele>
        <time>2016-03-05T09:40:33Z</time>
      </trkpt>
      <trkpt lat="47.50703" lon="7.25914">
        <ele>451.95</ele>
        <time>2016-03-05T09:40:44Z</time>
      </trkpt>
      <trkpt lat="47.50703" lon="7.25884">
        <ele>452.96</ele>
        <time>2016-03-05T09:40:56Z</time>
      </trkpt>
      <trkpt lat="47.50706" lon="7.25855">
        <ele>453.14</ele>
        <time>2016-03-05T09:41:08Z</time>
      </trkpt>
      <trkpt lat="47.50706" lon="7.25827">
        <ele>454</ele>
        <time>2016-03-05T09:41:19Z</time>
      </trkpt>
      <trkpt lat="47.50703" lon="7.258">
        <ele>454.59</ele>
        <time>2016-03-05T09:41:31Z</time>
      </trkpt>
      <trkpt lat="47.50694" lon="7.25775">
        <ele>454.42</ele>
        <time>2016-03-05T09:41:44Z</time>
      </trkpt>
      <trkpt lat="47.50685" lon="7.25748">
        <ele>452.95</ele>
        <time>2016-03-05T09:41:57Z</time>
      </trkpt>
      <trkpt lat="47.50675" lon="7.25724">
        <ele>452.94</ele>
        <time>2016-03-05T09:42:09Z</time>
      </trkpt>
      <trkpt lat="47.50668" lon="7.25698">
        <ele>453.51</ele>
        <time>2016-03-05T09:42:19Z</time>
      </trkpt>
      <trkpt lat="47.5066" lon="7.25672">
        <ele>454.77</ele>
        <time>2016-03-05T09:42:31Z</time>
      </trkpt>
      <trkpt lat="47.50649" lon="7.25648">
        <ele>455.76</ele>
        <time>2016-03-05T09:42:41Z</time>
      </trkpt>
      <trkpt lat="47.5064" lon="7.25623">
        <ele>457.17</ele>
        <time>2016-03-05T09:42:53Z</time>
      </trkpt>
      <trkpt lat="47.5062" lon="7.25624">
        <ele>458.29</ele>
        <time>2016-03-05T09:43:05Z</time>
      </trkpt>
      <trkpt lat="47.50604" lon="7.25638">
        <ele>459.65</ele>
        <time>2016-03-05T09:43:19Z</time>
      </trkpt>
      <trkpt lat="47.5059" lon="7.25656">
        <ele>460.94</ele>
        <time>2016-03-05T09:43:31Z</time>
      </trkpt>
      <trkpt lat="47.50576" lon="7.25674">
        <ele>461.64</ele>
        <time>2016-03-05T09:43:41Z</time>
      </trkpt>
      <trkpt lat="47.50561" lon="7.25694">
        <ele>463.04</ele>
        <time>2016-03-05T09:43:55Z</time>
      </trkpt>
      <trkpt lat="47.50546" lon="7.2571">
        <ele>464.34</ele>
        <time>2016-03-05T09:44:04Z</time>
      </trkpt>
      <trkpt lat="47.5053" lon="7.25728">
        <ele>465.49</ele>
        <time>2016-03-05T09:44:15Z</time>
      </trkpt>
      <trkpt lat="47.50515" lon="7.25744">
        <ele>465.66</ele>
        <time>2016-03-05T09:44:26Z</time>
      </trkpt>
      <trkpt lat="47.50501" lon="7.25762">
        <ele>466.29</ele>
        <time>2016-03-05T09:44:36Z</time>
      </trkpt>
      <trkpt lat="47.50484" lon="7.25774">
        <ele>465.86</ele>
        <time>2016-03-05T09:44:45Z</time>
      </trkpt>
      <trkpt lat="47.50471" lon="7.25794">
        <ele>464.74</ele>
        <time>2016-03-05T09:44:56Z</time>
      </trkpt>
      <trkpt lat="47.50455" lon="7.2581">
        <ele>464.04</ele>
        <time>2016-03-05T09:45:07Z</time>
      </trkpt>
      <trkpt lat="47.50438" lon="7.25826">
        <ele>464.19</ele>
        <time>2016-03-05T09:45:21Z</time>
      </trkpt>
      <trkpt lat="47.50424" lon="7.25845">
        <ele>464.49</ele>
        <time>2016-03-05T09:45:31Z</time>
      </trkpt>
      <trkpt lat="47.5041" lon="7.25864">
        <ele>463.96</ele>
        <time>2016-03-05T09:45:41Z</time>
      </trkpt>
      <trkpt lat="47.50397" lon="7.25883">
        <ele>462.27</ele>
        <time>2016-03-05T09:45:51Z</time>
      </trkpt>
      <trkpt lat="47.50383" lon="7.25901">
        <ele>461.6</ele>
        <time>2016-03-05T09:46:01Z</time>
      </trkpt>
      <trkpt lat="47.50368" lon="7.25917">
        <ele>461.93</ele>
        <time>2016-03-05T09:46:10Z</time>
      </trkpt>
      <trkpt lat="47.50353" lon="7.25934">
        <ele>462.64</ele>
        <time>2016-03-05T09:46:21Z</time>
      </trkpt>
      <trkpt lat="47.50338" lon="7.25951">
        <ele>463.16</ele>
        <time>2016-03-05T09:46:32Z</time>
      </trkpt>
      <trkpt lat="47.50323" lon="7.25968">
        <ele>463.19</ele>
        <time>2016-03-05T09:46:44Z</time>
      </trkpt>
      <trkpt lat="47.50307" lon="7.25983">
        <ele>462.88</ele>
        <time>2016-03-05T09:46:53Z</time>
      </trkpt>
      <trkpt lat="47.50292" lon="7.26001">
        <ele>462.98</ele>
        <time>2016-03-05T09:47:05Z</time>
      </trkpt>
      <trkpt lat="47.50277" lon="7.26017">
        <ele>462.73</ele>
        <time>2016-03-05T09:47:16Z</time>
      </trkpt>
      <trkpt lat="47.50261" lon="7.26031">
        <ele>463.3</ele>
        <time>2016-03-05T09:47:25Z</time>
      </trkpt>
      <trkpt lat="47.50245" lon="7.26045">
        <ele>464.28</ele>
        <time>2016-03-05T09:47:36Z</time>
      </trkpt>
      <trkpt lat="47.50231" lon="7.26063">
        <ele>465.33</ele>
        <time>2016-03-05T09:47:48Z</time>
      </trkpt>
      <trkpt lat="47.50212" lon="7.26074">
        <ele>466.05</ele>
        <time>2016-03-05T09:48:00Z</time>
      </trkpt>
      <trkpt lat="47.50197" lon="7.26057">
        <ele>466.08</ele>
        <time>2016-03-05T09:48:12Z</time>
      </trkpt>
      <trkpt lat="47.50183" lon="7.26036">
        <ele>465.02</ele>
        <time>2016-03-05T09:48:22Z</time>
      </trkpt>
      <trkpt lat="47.50169" lon="7.26016">
        <ele>463.84</ele>
        <time>2016-03-05T09:48:33Z</time>
      </trkpt>
      <trkpt lat="47.50155" lon="7.25996">
        <ele>462.24</ele>
        <time>2016-03-05T09:48:46Z</time>
      </trkpt>
      <trkpt lat="47.50138" lon="7.25984">
        <ele>461.89</ele>
        <time>2016-03-05T09:48:55Z</time>
      </trkpt>
      <trkpt lat="47.50123" lon="7.25968">
        <ele>463.3</ele>
        <time>2016-03-05T09:49:06Z</time>
      </trkpt>
      <trkpt lat="47.50108" lon="7.25953">
        <ele>464.47</ele>
        <time>2016-03-05T09:49:18Z</time>
      </trkpt>
      <trkpt lat="47.50093" lon="7.25937">
        <ele>463.76</ele>
        <time>2016-03-05T09:49:30Z</time>
      </trkpt>
      <trkpt lat="47.50078" lon="7.25921">
        <ele>462.93</ele>
        <time>2016-03-05T09:49:41Z</time>
      </trkpt>
      <trkpt lat="47.50063" lon="7.25903">
        <ele>464.12</ele>
        <time>2016-03-05T09:49:50Z</time>
      </trkpt>
      <trkpt lat="47.50047" lon="7.2589">
        <ele>465.09</ele>
        <time>2016-03-05T09:50:01Z</time>
      </trkpt>
      <trkpt lat="47.5003" lon="7.25875">
        <ele>465.55</ele>
        <time>2016-03-05T09:50:12Z</time>
      </trkpt>
      <trkpt lat="47.50013" lon="7.25863">
        <ele>465.98</ele>
        <time>2016-03-05T09:50:23Z</time>
      </trkpt>
      <trkpt lat="47.49996" lon="7.2585">
        <ele>467.57</ele>
        <time>2016-03-05T09:50:35Z</time>
      </trkpt>
      <trkpt lat="47.49981" lon="7.25833">
        <ele>467.95</ele>
        <time>2016-03-05T09:50:45Z</time>
      </trkpt>
      <trkpt lat="47.49966" lon="7.25817">
        <ele>468.76</ele>
        <time>2016-03-05T09:50:56Z</time>
      </trkpt>
      <trkpt lat="47.49951" lon="7.25801">
        <ele>470.33</ele>
        <time>2016-03-05T09:51:08Z</time>
      </trkpt>
      <trkpt lat="47.49937" lon="7.25784">
        <ele>471.82</ele>
        <time>2016-03-05T09:51:18Z</time>
      </trkpt>
      <trkpt lat="47.49924" lon="7.25765">
        <ele>473.92</ele>
        <time>2016-03-05T09:51:28Z</time>
      </trkpt>
      <trkpt lat="47.49907" lon="7.25749">
        <ele>474.81</ele>
        <time>2016-03-05T09:51:39Z</time>
      </trkpt>
      <trkpt lat="47.49892" lon="7.25732">
        <ele>475.93</ele>
        <time>2016-03-05T09:51:51Z</time>
      </trkpt>
      <trkpt lat="47.49879" lon="7.25712">
        <ele>476.86</ele>
        <time>2016-03-05T09:52:02Z</time>
      </trkpt>
      <trkpt lat="47.49868" lon="7.25689">
        <ele>478.08</ele>
        <time>2016-03-05T09:52:14Z</time>
      </trkpt>
      <trkpt lat="47.49856" lon="7.25666">
        <ele>480.38</ele>
        <time>2016-03-05T09:52:28Z</time>
      </trkpt>
      <trkpt lat="47.49843" lon="7.25646">
        <ele>482.8</ele>
        <time>2016-03-05T09:52:42Z</time>
      </trkpt>
      <trkpt lat="47.49827" lon="7.25632">
        <ele>483.38</ele>
        <time>2016-03-05T09:52:52Z</time>
      </trkpt>
      <trkpt lat="47.49809" lon="7.25641">
        <ele>485.91</ele>
        <time>2016-03-05T09:53:07Z</time>
      </trkpt>
      <trkpt lat="47.49793" lon="7.25656">
        <ele>490.58</ele>
        <time>2016-03-05T09:53:20Z</time>
      </trkpt>
      <trkpt lat="47.49774" lon="7.25658">
        <ele>497.63</ele>
        <time>2016-03-05T09:53:33Z</time>
      </trkpt>
      <trkpt lat="47.49755" lon="7.25665">
        <ele>503.07</ele>
        <time>2016-03-05T09:53:45Z</time>
      </trkpt>
      <trkpt lat="47.49742" lon="7.25685">
        <ele>507.51</ele>
        <time>2016-03-05T09:53:59Z</time>
      </trkpt>
      <trkpt lat="47.49729" lon="7.25703">
        <ele>512.33</ele>
        <time>2016-03-05T09:54:13Z</time>
      </trkpt>
      <trkpt lat="47.49728" lon="7.2573">
        <ele>516.91</ele>
        <time>2016-03-05T09:54:35Z</time>
      </trkpt>
      <trkpt lat="47.49728" lon="7.25759">
        <ele>519.49</ele>
        <time>2016-03-05T09:54:43Z</time>
      </trkpt>
      <trkpt lat="47.49727" lon="7.25789">
        <ele>521.19</ele>
        <time>2016-03-05T09:54:52Z</time>
      </trkpt>
      <trkpt lat="47.49726" lon="7.25816">
        <ele>521.44</ele>
        <time>2016-03-05T09:55:03Z</time>
      </trkpt>
      <trkpt lat="47.49736" lon="7.25842">
        <ele>522.25</ele>
        <time>2016-03-05T09:55:20Z</time>
      </trkpt>
      <trkpt lat="47.49746" lon="7.25866">
        <ele>525</ele>
        <time>2016-03-05T09:55:42Z</time>
      </trkpt>
      <trkpt lat="47.49753" lon="7.25892">
        <ele>526.06</ele>
        <time>2016-03-05T09:55:50Z</time>
      </trkpt>
      <trkpt lat="47.49762" lon="7.25916">
        <ele>528.05</ele>
        <time>2016-03-05T09:56:02Z</time>
      </trkpt>
      <trkpt lat="47.49767" lon="7.25942">
        <ele>530.7</ele>
        <time>2016-03-05T09:56:23Z</time>
      </trkpt>
      <trkpt lat="47.49767" lon="7.25969">
        <ele>532.07</ele>
        <time>2016-03-05T09:56:35Z</time>
      </trkpt>
      <trkpt lat="47.49769" lon="7.25997">
        <ele>534.13</ele>
        <time>2016-03-05T09:56:56Z</time>
      </trkpt>
      <trkpt lat="47.49769" lon="7.26028">
        <ele>537.14</ele>
        <time>2016-03-05T09:57:14Z</time>
      </trkpt>
      <trkpt lat="47.49769" lon="7.26057">
        <ele>541.49</ele>
        <time>2016-03-05T09:57:35Z</time>
      </trkpt>
      <trkpt lat="47.49774" lon="7.26084">
        <ele>544.02</ele>
        <time>2016-03-05T09:57:47Z</time>
      </trkpt>
      <trkpt lat="47.49777" lon="7.26113">
        <ele>549.67</ele>
        <time>2016-03-05T09:58:03Z</time>
      </trkpt>
      <trkpt lat="47.49779" lon="7.26143">
        <ele>552.44</ele>
        <time>2016-03-05T09:58:15Z</time>
      </trkpt>
      <trkpt lat="47.49771" lon="7.26167">
        <ele>553.46</ele>
        <time>2016-03-05T09:58:20Z</time>
      </trkpt>
      <trkpt lat="47.49765" lon="7.26193">
        <ele>556.06</ele>
        <time>2016-03-05T09:58:33Z</time>
      </trkpt>
      <trkpt lat="47.49758" lon="7.26221">
        <ele>558.22</ele>
        <time>2016-03-05T09:58:44Z</time>
      </trkpt>
      <trkpt lat="47.49749" lon="7.2625">
        <ele>558.68</ele>
        <time>2016-03-05T09:58:50Z</time>
      </trkpt>
      <trkpt lat="47.49745" lon="7.26276">
        <ele>559.08</ele>
        <time>2016-03-05T09:59:03Z</time>
      </trkpt>
      <trkpt lat="47.49742" lon="7.26305">
        <ele>559.03</ele>
        <time>2016-03-05T09:59:17Z</time>
      </trkpt>
      <trkpt lat="47.49749" lon="7.26333">
        <ele>559.5</ele>
        <time>2016-03-05T09:59:36Z</time>
      </trkpt>
      <trkpt lat="47.49753" lon="7.26361">
        <ele>562.5</ele>
        <time>2016-03-05T09:59:55Z</time>
      </trkpt>
      <trkpt lat="47.49753" lon="7.26387">
        <ele>564.41</ele>
        <time>2016-03-05T10:00:08Z</time>
      </trkpt>
      <trkpt lat="47.49749" lon="7.26415">
        <ele>567.41</ele>
        <time>2016-03-05T10:00:23Z</time>
      </trkpt>
      <trkpt lat="47.49751" lon="7.26443">
        <ele>569.62</ele>
        <time>2016-03-05T10:00:40Z</time>
      </trkpt>
      <trkpt lat="47.49756" lon="7.2647">
        <ele>571.62</ele>
        <time>2016-03-05T10:00:55Z</time>
      </trkpt>
      <trkpt lat="47.49768" lon="7.2649">
        <ele>573.09</ele>
        <time>2016-03-05T10:01:12Z</time>
      </trkpt>
      <trkpt lat="47.49778" lon="7.26513">
        <ele>574.75</ele>
        <time>2016-03-05T10:01:27Z</time>
      </trkpt>
      <trkpt lat="47.49789" lon="7.26537">
        <ele>577.89</ele>
        <time>2016-03-05T10:01:44Z</time>
      </trkpt>
      <trkpt lat="47.49801" lon="7.26561">
        <ele>580.89</ele>
        <time>2016-03-05T10:01:53Z</time>
      </trkpt>
      <trkpt lat="47.49811" lon="7.26584">
        <ele>585.29</ele>
        <time>2016-03-05T10:02:10Z</time>
      </trkpt>
      <trkpt lat="47.49826" lon="7.266">
        <ele>586.82</ele>
        <time>2016-03-05T10:02:16Z</time>
      </trkpt>
      <trkpt lat="47.49836" lon="7.26626">
        <ele>589.24</ele>
        <time>2016-03-05T10:02:29Z</time>
      </trkpt>
      <trkpt lat="47.49843" lon="7.26651">
        <ele>589.92</ele>
        <time>2016-03-05T10:02:37Z</time>
      </trkpt>
      <trkpt lat="47.49849" lon="7.26677">
        <ele>590.49</ele>
        <time>2016-03-05T10:02:46Z</time>
      </trkpt>
      <trkpt lat="47.4986" lon="7.26698">
        <ele>589.53</ele>
        <time>2016-03-05T10:03:08Z</time>
      </trkpt>
      <trkpt lat="47.49867" lon="7.26723">
        <ele>589.34</ele>
        <time>2016-03-05T10:05:21Z</time>
      </trkpt>
      <trkpt lat="47.4987" lon="7.26751">
        <ele>590.25</ele>
        <time>2016-03-05T10:05:29Z</time>
      </trkpt>
      <trkpt lat="47.49876" lon="7.26776">
        <ele>589.42</ele>
        <time>2016-03-05T10:05:40Z</time>
      </trkpt>
      <trkpt lat="47.49884" lon="7.268">
        <ele>587.68</ele>
        <time>2016-03-05T10:05:51Z</time>
      </trkpt>
      <trkpt lat="47.49894" lon="7.26824">
        <ele>588.59</ele>
        <time>2016-03-05T10:06:03Z</time>
      </trkpt>
      <trkpt lat="47.49894" lon="7.26851">
        <ele>590.53</ele>
        <time>2016-03-05T10:06:14Z</time>
      </trkpt>
      <trkpt lat="47.499" lon="7.26876">
        <ele>591.83</ele>
        <time>2016-03-05T10:06:21Z</time>
      </trkpt>
      <trkpt lat="47.49899" lon="7.26905">
        <ele>592.6</ele>
        <time>2016-03-05T10:06:27Z</time>
      </trkpt>
      <trkpt lat="47.49901" lon="7.26933">
        <ele>593.77</ele>
        <time>2016-03-05T10:06:38Z</time>
      </trkpt>
      <trkpt lat="47.49907" lon="7.26958">
        <ele>595.11</ele>
        <time>2016-03-05T10:06:51Z</time>
      </trkpt>
      <trkpt lat="47.49908" lon="7.26986">
        <ele>594.56</ele>
        <time>2016-03-05T10:07:04Z</time>
      </trkpt>
      <trkpt lat="47.49915" lon="7.27012">
        <ele>592.01</ele>
        <time>2016-03-05T10:07:17Z</time>
      </trkpt>
      <trkpt lat="47.49926" lon="7.27037">
        <ele>588.19</ele>
        <time>2016-03-05T10:07:27Z</time>
      </trkpt>
      <trkpt lat="47.4993" lon="7.27066">
        <ele>585.33</ele>
        <time>2016-03-05T10:07:38Z</time>
      </trkpt>
      <trkpt lat="47.49934" lon="7.27095">
        <ele>583.48</ele>
        <time>2016-03-05T10:07:46Z</time>
      </trkpt>
      <trkpt lat="47.49934" lon="7.27125">
        <ele>581.87</ele>
        <time>2016-03-05T10:07:57Z</time>
      </trkpt>
      <trkpt lat="47.49936" lon="7.27152">
        <ele>580.46</ele>
        <time>2016-03-05T10:08:07Z</time>
      </trkpt>
      <trkpt lat="47.49941" lon="7.27177">
        <ele>578.87</ele>
        <time>2016-03-05T10:08:17Z</time>
      </trkpt>
      <trkpt lat="47.49948" lon="7.27202">
        <ele>577.48</ele>
        <time>2016-03-05T10:08:29Z</time>
      </trkpt>
      <trkpt lat="47.49954" lon="7.27229">
        <ele>576.34</ele>
        <time>2016-03-05T10:08:42Z</time>
      </trkpt>
      <trkpt lat="47.49956" lon="7.27256">
        <ele>575.42</ele>
        <time>2016-03-05T10:08:53Z</time>
      </trkpt>
      <trkpt lat="47.49956" lon="7.27284">
        <ele>573.2</ele>
        <time>2016-03-05T10:09:06Z</time>
      </trkpt>
      <trkpt lat="47.49958" lon="7.27313">
        <ele>571.22</ele>
        <time>2016-03-05T10:09:18Z</time>
      </trkpt>
      <trkpt lat="47.49963" lon="7.27341">
        <ele>569.12</ele>
        <time>2016-03-05T10:09:33Z</time>
      </trkpt>
      <trkpt lat="47.49948" lon="7.27359">
        <ele>568.17</ele>
        <time>2016-03-05T10:09:50Z</time>
      </trkpt>
      <trkpt lat="47.49933" lon="7.27374">
        <ele>568.42</ele>
        <time>2016-03-05T10:10:01Z</time>
      </trkpt>
      <trkpt lat="47.49918" lon="7.27393">
        <ele>570.12</ele>
        <time>2016-03-05T10:10:15Z</time>
      </trkpt>
      <trkpt lat="47.49903" lon="7.27409">
        <ele>569.18</ele>
        <time>2016-03-05T10:10:25Z</time>
      </trkpt>
      <trkpt lat="47.49885" lon="7.27418">
        <ele>568.98</ele>
        <time>2016-03-05T10:10:44Z</time>
      </trkpt>
      <trkpt lat="47.49868" lon="7.2743">
        <ele>570.1</ele>
        <time>2016-03-05T10:10:54Z</time>
      </trkpt>
      <trkpt lat="47.4985" lon="7.27437">
        <ele>573.44</ele>
        <time>2016-03-05T10:11:06Z</time>
      </trkpt>
      <trkpt lat="47.49832" lon="7.27432">
        <ele>575.83</ele>
        <time>2016-03-05T10:11:20Z</time>
      </trkpt>
      <trkpt lat="47.49813" lon="7.27434">
        <ele>576.96</ele>
        <time>2016-03-05T10:11:28Z</time>
      </trkpt>
      <trkpt lat="47.49796" lon="7.27443">
        <ele>577.3</ele>
        <time>2016-03-05T10:11:40Z</time>
      </trkpt>
      <trkpt lat="47.49778" lon="7.27451">
        <ele>577.9</ele>
        <time>2016-03-05T10:11:52Z</time>
      </trkpt>
      <trkpt lat="47.4976" lon="7.27466">
        <ele>579.05</ele>
        <time>2016-03-05T10:12:02Z</time>
      </trkpt>
      <trkpt lat="47.49746" lon="7.27485">
        <ele>581.43</ele>
        <time>2016-03-05T10:12:17Z</time>
      </trkpt>
      <trkpt lat="47.49733" lon="7.27503">
        <ele>582.27</ele>
        <time>2016-03-05T10:12:31Z</time>
      </trkpt>
      <trkpt lat="47.49714" lon="7.2751">
        <ele>584.69</ele>
        <time>2016-03-05T10:12:44Z</time>
      </trkpt>
      <trkpt lat="47.49695" lon="7.27512">
        <ele>588.76</ele>
        <time>2016-03-05T10:12:56Z</time>
      </trkpt>
      <trkpt lat="47.49676" lon="7.27507">
        <ele>592.8</ele>
        <time>2016-03-05T10:13:06Z</time>
      </trkpt>
      <trkpt lat="47.49657" lon="7.27511">
        <ele>597.71</ele>
        <time>2016-03-05T10:13:21Z</time>
      </trkpt>
      <trkpt lat="47.4964" lon="7.2752">
        <ele>600.67</ele>
        <time>2016-03-05T10:13:35Z</time>
      </trkpt>
      <trkpt lat="47.49622" lon="7.27523">
        <ele>602.22</ele>
        <time>2016-03-05T10:13:45Z</time>
      </trkpt>
      <trkpt lat="47.49605" lon="7.27536">
        <ele>602.49</ele>
        <time>2016-03-05T10:14:02Z</time>
      </trkpt>
      <trkpt lat="47.49606" lon="7.27564">
        <ele>601.77</ele>
        <time>2016-03-05T10:14:17Z</time>
      </trkpt>
      <trkpt lat="47.49611" lon="7.27592">
        <ele>600.2</ele>
        <time>2016-03-05T10:14:28Z</time>
      </trkpt>
      <trkpt lat="47.49623" lon="7.27612">
        <ele>599.77</ele>
        <time>2016-03-05T10:14:43Z</time>
      </trkpt>
      <trkpt lat="47.49635" lon="7.27635">
        <ele>599.91</ele>
        <time>2016-03-05T10:14:56Z</time>
      </trkpt>
      <trkpt lat="47.49642" lon="7.27661">
        <ele>599.81</ele>
        <time>2016-03-05T10:15:07Z</time>
      </trkpt>
      <trkpt lat="47.49652" lon="7.27684">
        <ele>599.62</ele>
        <time>2016-03-05T10:15:20Z</time>
      </trkpt>
      <trkpt lat="47.49659" lon="7.27708">
        <ele>601.12</ele>
        <time>2016-03-05T10:15:32Z</time>
      </trkpt>
      <trkpt lat="47.4966" lon="7.27735">
        <ele>605.87</ele>
        <time>2016-03-05T10:16:03Z</time>
      </trkpt>
      <trkpt lat="47.49657" lon="7.27762">
        <ele>607.26</ele>
        <time>2016-03-05T10:16:23Z</time>
      </trkpt>
      <trkpt lat="47.49652" lon="7.27789">
        <ele>607.59</ele>
        <time>2016-03-05T10:16:42Z</time>
      </trkpt>
      <trkpt lat="47.49643" lon="7.27813">
        <ele>611.14</ele>
        <time>2016-03-05T10:17:20Z</time>
      </trkpt>
      <trkpt lat="47.49643" lon="7.27786">
        <ele>612.38</ele>
        <time>2016-03-05T10:17:42Z</time>
      </trkpt>
      <trkpt lat="47.49645" lon="7.27756">
        <ele>609.74</ele>
        <time>2016-03-05T10:17:59Z</time>
      </trkpt>
      <trkpt lat="47.49647" lon="7.27729">
        <ele>608.93</ele>
        <time>2016-03-05T10:18:11Z</time>
      </trkpt>
      <trkpt lat="47.49653" lon="7.27702">
        <ele>606.49</ele>
        <time>2016-03-05T10:18:27Z</time>
      </trkpt>
      <trkpt lat="47.49664" lon="7.27725">
        <ele>605.27</ele>
        <time>2016-03-05T10:18:44Z</time>
      </trkpt>
      <trkpt lat="47.49674" lon="7.27748">
        <ele>605.42</ele>
        <time>2016-03-05T10:18:53Z</time>
      </trkpt>
      <trkpt lat="47.49687" lon="7.27768">
        <ele>607.34</ele>
        <time>2016-03-05T10:19:04Z</time>
      </trkpt>
      <trkpt lat="47.497" lon="7.27788">
        <ele>610.59</ele>
        <time>2016-03-05T10:19:16Z</time>
      </trkpt>
      <trkpt lat="47.49709" lon="7.27813">
        <ele>612.87</ele>
        <time>2016-03-05T10:19:27Z</time>
      </trkpt>
      <trkpt lat="47.49721" lon="7.27834">
        <ele>614.47</ele>
        <time>2016-03-05T10:19:36Z</time>
      </trkpt>
      <trkpt lat="47.49732" lon="7.27858">
        <ele>616.42</ele>
        <time>2016-03-05T10:19:48Z</time>
      </trkpt>
      <trkpt lat="47.49741" lon="7.27883">
        <ele>617.26</ele>
        <time>2016-03-05T10:19:58Z</time>
      </trkpt>
      <trkpt lat="47.49748" lon="7.27911">
        <ele>617.39</ele>
        <time>2016-03-05T10:20:11Z</time>
      </trkpt>
      <trkpt lat="47.49751" lon="7.27938">
        <ele>618.66</ele>
        <time>2016-03-05T10:20:23Z</time>
      </trkpt>
      <trkpt lat="47.49754" lon="7.27965">
        <ele>619.32</ele>
        <time>2016-03-05T10:20:33Z</time>
      </trkpt>
      <trkpt lat="47.49759" lon="7.27991">
        <ele>619.26</ele>
        <time>2016-03-05T10:20:53Z</time>
      </trkpt>
      <trkpt lat="47.49767" lon="7.28015">
        <ele>620.29</ele>
        <time>2016-03-05T10:21:09Z</time>
      </trkpt>
      <trkpt lat="47.49776" lon="7.28041">
        <ele>622.12</ele>
        <time>2016-03-05T10:21:18Z</time>
      </trkpt>
      <trkpt lat="47.49778" lon="7.28068">
        <ele>625.07</ele>
        <time>2016-03-05T10:21:31Z</time>
      </trkpt>
      <trkpt lat="47.49779" lon="7.28096">
        <ele>627.86</ele>
        <time>2016-03-05T10:21:45Z</time>
      </trkpt>
      <trkpt lat="47.49766" lon="7.28119">
        <ele>632.18</ele>
        <time>2016-03-05T10:22:00Z</time>
      </trkpt>
      <trkpt lat="47.49753" lon="7.28141">
        <ele>635.6</ele>
        <time>2016-03-05T10:22:14Z</time>
      </trkpt>
      <trkpt lat="47.49748" lon="7.28167">
        <ele>639.54</ele>
        <time>2016-03-05T10:22:31Z</time>
      </trkpt>
      <trkpt lat="47.49745" lon="7.28195">
        <ele>642.48</ele>
        <time>2016-03-05T10:22:48Z</time>
      </trkpt>
      <trkpt lat="47.49741" lon="7.28222">
        <ele>645.4</ele>
        <time>2016-03-05T10:23:05Z</time>
      </trkpt>
      <trkpt lat="47.49733" lon="7.28248">
        <ele>647.93</ele>
        <time>2016-03-05T10:23:15Z</time>
      </trkpt>
      <trkpt lat="47.49724" lon="7.28275">
        <ele>649.25</ele>
        <time>2016-03-05T10:23:26Z</time>
      </trkpt>
      <trkpt lat="47.49712" lon="7.28296">
        <ele>649.11</ele>
        <time>2016-03-05T10:23:34Z</time>
      </trkpt>
      <trkpt lat="47.49699" lon="7.28317">
        <ele>648.95</ele>
        <time>2016-03-05T10:23:43Z</time>
      </trkpt>
      <trkpt lat="47.49688" lon="7.28342">
        <ele>649.07</ele>
        <time>2016-03-05T10:23:56Z</time>
      </trkpt>
      <trkpt lat="47.49682" lon="7.28369">
        <ele>649.25</ele>
        <time>2016-03-05T10:24:11Z</time>
      </trkpt>
      <trkpt lat="47.49674" lon="7.28394">
        <ele>646.79</ele>
        <time>2016-03-05T10:24:23Z</time>
      </trkpt>
      <trkpt lat="47.49672" lon="7.2842">
        <ele>644.34</ele>
        <time>2016-03-05T10:24:36Z</time>
      </trkpt>
      <trkpt lat="47.49673" lon="7.28448">
        <ele>642.23</ele>
        <time>2016-03-05T10:24:51Z</time>
      </trkpt>
      <trkpt lat="47.4968" lon="7.28473">
        <ele>644.78</ele>
        <time>2016-03-05T10:25:11Z</time>
      </trkpt>
      <trkpt lat="47.49688" lon="7.28498">
        <ele>644.91</ele>
        <time>2016-03-05T10:25:23Z</time>
      </trkpt>
      <trkpt lat="47.497" lon="7.28521">
        <ele>645.3</ele>
        <time>2016-03-05T10:25:38Z</time>
      </trkpt>
      <trkpt lat="47.49711" lon="7.28543">
        <ele>645.62</ele>
        <time>2016-03-05T10:25:49Z</time>
      </trkpt>
      <trkpt lat="47.49726" lon="7.28562">
        <ele>645.47</ele>
        <time>2016-03-05T10:26:05Z</time>
      </trkpt>
      <trkpt lat="47.49737" lon="7.28584">
        <ele>644.87</ele>
        <time>2016-03-05T10:26:16Z</time>
      </trkpt>
      <trkpt lat="47.49748" lon="7.28608">
        <ele>642.4</ele>
        <time>2016-03-05T10:26:28Z</time>
      </trkpt>
      <trkpt lat="47.49758" lon="7.28633">
        <ele>640.76</ele>
        <time>2016-03-05T10:26:43Z</time>
      </trkpt>
      <trkpt lat="47.4977" lon="7.28654">
        <ele>638.81</ele>
        <time>2016-03-05T10:26:56Z</time>
      </trkpt>
      <trkpt lat="47.49785" lon="7.2867">
        <ele>634.43</ele>
        <time>2016-03-05T10:27:09Z</time>
      </trkpt>
      <trkpt lat="47.49802" lon="7.2869">
        <ele>632.07</ele>
        <time>2016-03-05T10:27:18Z</time>
      </trkpt>
      <trkpt lat="47.49819" lon="7.28703">
        <ele>630.27</ele>
        <time>2016-03-05T10:27:25Z</time>
      </trkpt>
      <trkpt lat="47.49835" lon="7.28716">
        <ele>628.46</ele>
        <time>2016-03-05T10:27:37Z</time>
      </trkpt>
      <trkpt lat="47.49851" lon="7.28731">
        <ele>625.11</ele>
        <time>2016-03-05T10:27:49Z</time>
      </trkpt>
      <trkpt lat="47.49866" lon="7.28748">
        <ele>620.03</ele>
        <time>2016-03-05T10:28:04Z</time>
      </trkpt>
      <trkpt lat="47.49883" lon="7.28762">
        <ele>616.33</ele>
        <time>2016-03-05T10:28:19Z</time>
      </trkpt>
      <trkpt lat="47.49898" lon="7.28778">
        <ele>613.15</ele>
        <time>2016-03-05T10:28:32Z</time>
      </trkpt>
      <trkpt lat="47.49913" lon="7.28797">
        <ele>612.08</ele>
        <time>2016-03-05T10:28:45Z</time>
      </trkpt>
      <trkpt lat="47.49925" lon="7.28817">
        <ele>611.42</ele>
        <time>2016-03-05T10:28:53Z</time>
      </trkpt>
      <trkpt lat="47.49942" lon="7.28837">
        <ele>610.9</ele>
        <time>2016-03-05T10:29:00Z</time>
      </trkpt>
      <trkpt lat="47.49959" lon="7.28848">
        <ele>609.45</ele>
        <time>2016-03-05T10:29:10Z</time>
      </trkpt>
      <trkpt lat="47.49977" lon="7.2886">
        <ele>606.47</ele>
        <time>2016-03-05T10:29:21Z</time>
      </trkpt>
      <trkpt lat="47.49995" lon="7.2887">
        <ele>602</ele>
        <time>2016-03-05T10:29:36Z</time>
      </trkpt>
      <trkpt lat="47.50013" lon="7.2888">
        <ele>598.84</ele>
        <time>2016-03-05T10:29:47Z</time>
      </trkpt>
      <trkpt lat="47.50029" lon="7.28894">
        <ele>597.49</ele>
        <time>2016-03-05T10:29:54Z</time>
      </trkpt>
      <trkpt lat="47.50045" lon="7.28909">
        <ele>595.1</ele>
        <time>2016-03-05T10:30:06Z</time>
      </trkpt>
      <trkpt lat="47.50059" lon="7.28927">
        <ele>591.69</ele>
        <time>2016-03-05T10:30:16Z</time>
      </trkpt>
      <trkpt lat="47.50072" lon="7.28946">
        <ele>586.39</ele>
        <time>2016-03-05T10:30:29Z</time>
      </trkpt>
      <trkpt lat="47.5008" lon="7.28971">
        <ele>582.85</ele>
        <time>2016-03-05T10:30:39Z</time>
      </trkpt>
      <trkpt lat="47.50089" lon="7.28997">
        <ele>581.29</ele>
        <time>2016-03-05T10:30:49Z</time>
      </trkpt>
      <trkpt lat="47.50095" lon="7.29025">
        <ele>580.64</ele>
        <time>2016-03-05T10:30:58Z</time>
      </trkpt>
      <trkpt lat="47.50101" lon="7.29052">
        <ele>579.08</ele>
        <time>2016-03-05T10:31:11Z</time>
      </trkpt>
      <trkpt lat="47.50112" lon="7.29075">
        <ele>578.13</ele>
        <time>2016-03-05T10:31:25Z</time>
      </trkpt>
      <trkpt lat="47.50125" lon="7.29094">
        <ele>577.21</ele>
        <time>2016-03-05T10:31:33Z</time>
      </trkpt>
      <trkpt lat="47.50139" lon="7.29112">
        <ele>574.38</ele>
        <time>2016-03-05T10:31:51Z</time>
      </trkpt>
      <trkpt lat="47.50154" lon="7.29131">
        <ele>571.46</ele>
        <time>2016-03-05T10:32:06Z</time>
      </trkpt>
      <trkpt lat="47.50166" lon="7.29151">
        <ele>568.87</ele>
        <time>2016-03-05T10:32:19Z</time>
      </trkpt>
      <trkpt lat="47.5018" lon="7.2917">
        <ele>564.93</ele>
        <time>2016-03-05T10:32:33Z</time>
      </trkpt>
      <trkpt lat="47.50191" lon="7.29192">
        <ele>563.16</ele>
        <time>2016-03-05T10:32:44Z</time>
      </trkpt>
      <trkpt lat="47.50197" lon="7.2922">
        <ele>561.1</ele>
        <time>2016-03-05T10:32:57Z</time>
      </trkpt>
      <trkpt lat="47.50204" lon="7.29245">
        <ele>557.43</ele>
        <time>2016-03-05T10:33:11Z</time>
      </trkpt>
      <trkpt lat="47.50209" lon="7.29273">
        <ele>552.97</ele>
        <time>2016-03-05T10:33:25Z</time>
      </trkpt>
      <trkpt lat="47.50208" lon="7.29304">
        <ele>550.55</ele>
        <time>2016-03-05T10:33:34Z</time>
      </trkpt>
      <trkpt lat="47.50213" lon="7.29332">
        <ele>548.54</ele>
        <time>2016-03-05T10:33:43Z</time>
      </trkpt>
      <trkpt lat="47.50215" lon="7.29361">
        <ele>546.09</ele>
        <time>2016-03-05T10:33:55Z</time>
      </trkpt>
      <trkpt lat="47.5021" lon="7.29389">
        <ele>544.36</ele>
        <time>2016-03-05T10:34:07Z</time>
      </trkpt>
      <trkpt lat="47.50205" lon="7.29417">
        <ele>544.01</ele>
        <time>2016-03-05T10:34:20Z</time>
      </trkpt>
      <trkpt lat="47.50201" lon="7.29443">
        <ele>543.81</ele>
        <time>2016-03-05T10:34:33Z</time>
      </trkpt>
      <trkpt lat="47.50192" lon="7.29466">
        <ele>542.87</ele>
        <time>2016-03-05T10:34:43Z</time>
      </trkpt>
      <trkpt lat="47.50183" lon="7.2949">
        <ele>541.39</ele>
        <time>2016-03-05T10:34:55Z</time>
      </trkpt>
      <trkpt lat="47.50167" lon="7.29506">
        <ele>538.61</ele>
        <time>2016-03-05T10:35:09Z</time>
      </trkpt>
      <trkpt lat="47.50149" lon="7.29518">
        <ele>537.61</ele>
        <time>2016-03-05T10:35:28Z</time>
      </trkpt>
      <trkpt lat="47.50135" lon="7.29538">
        <ele>537.94</ele>
        <time>2016-03-05T10:35:39Z</time>
      </trkpt>
      <trkpt lat="47.50119" lon="7.29551">
        <ele>537.93</ele>
        <time>2016-03-05T10:35:50Z</time>
      </trkpt>
      <trkpt lat="47.501" lon="7.29558">
        <ele>538.7</ele>
        <time>2016-03-05T10:36:02Z</time>
      </trkpt>
      <trkpt lat="47.50082" lon="7.29569">
        <ele>538.61</ele>
        <time>2016-03-05T10:36:15Z</time>
      </trkpt>
      <trkpt lat="47.50063" lon="7.29574">
        <ele>538.02</ele>
        <time>2016-03-05T10:36:22Z</time>
      </trkpt>
      <trkpt lat="47.50044" lon="7.29579">
        <ele>536.46</ele>
        <time>2016-03-05T10:36:31Z</time>
      </trkpt>
      <trkpt lat="47.50026" lon="7.29588">
        <ele>531.85</ele>
        <time>2016-03-05T10:36:43Z</time>
      </trkpt>
      <trkpt lat="47.5001" lon="7.29602">
        <ele>526.58</ele>
        <time>2016-03-05T10:36:54Z</time>
      </trkpt>
      <trkpt lat="47.49993" lon="7.29616">
        <ele>520.69</ele>
        <time>2016-03-05T10:37:05Z</time>
      </trkpt>
      <trkpt lat="47.49976" lon="7.29627">
        <ele>515.85</ele>
        <time>2016-03-05T10:37:19Z</time>
      </trkpt>
      <trkpt lat="47.49958" lon="7.29639">
        <ele>512.17</ele>
        <time>2016-03-05T10:37:31Z</time>
      </trkpt>
      <trkpt lat="47.49957" lon="7.29666">
        <ele>509.5</ele>
        <time>2016-03-05T10:37:45Z</time>
      </trkpt>
      <trkpt lat="47.49967" lon="7.29689">
        <ele>507.98</ele>
        <time>2016-03-05T10:37:56Z</time>
      </trkpt>
      <trkpt lat="47.49975" lon="7.29714">
        <ele>507.03</ele>
        <time>2016-03-05T10:38:07Z</time>
      </trkpt>
      <trkpt lat="47.4999" lon="7.29732">
        <ele>504.46</ele>
        <time>2016-03-05T10:38:20Z</time>
      </trkpt>
      <trkpt lat="47.50008" lon="7.29741">
        <ele>500.43</ele>
        <time>2016-03-05T10:38:32Z</time>
      </trkpt>
      <trkpt lat="47.50023" lon="7.29756">
        <ele>498.43</ele>
        <time>2016-03-05T10:38:43Z</time>
      </trkpt>
      <trkpt lat="47.50024" lon="7.29783">
        <ele>498.16</ele>
        <time>2016-03-05T10:38:54Z</time>
      </trkpt>
      <trkpt lat="47.50019" lon="7.29809">
        <ele>497.13</ele>
        <time>2016-03-05T10:39:09Z</time>
      </trkpt>
      <trkpt lat="47.50033" lon="7.29828">
        <ele>495.81</ele>
        <time>2016-03-05T10:39:22Z</time>
      </trkpt>
      <trkpt lat="47.5005" lon="7.29841">
        <ele>493.88</ele>
        <time>2016-03-05T10:39:36Z</time>
      </trkpt>
      <trkpt lat="47.50066" lon="7.29855">
        <ele>492.91</ele>
        <time>2016-03-05T10:39:47Z</time>
      </trkpt>
      <trkpt lat="47.50082" lon="7.29874">
        <ele>493.51</ele>
        <time>2016-03-05T10:39:58Z</time>
      </trkpt>
      <trkpt lat="47.50097" lon="7.29886">
        <ele>493.54</ele>
        <time>2016-03-05T10:40:08Z</time>
      </trkpt>
      <trkpt lat="47.50116" lon="7.29898">
        <ele>493.11</ele>
        <time>2016-03-05T10:40:21Z</time>
      </trkpt>
      <trkpt lat="47.50129" lon="7.29918">
        <ele>492.83</ele>
        <time>2016-03-05T10:40:31Z</time>
      </trkpt>
      <trkpt lat="47.50146" lon="7.29932">
        <ele>489.65</ele>
        <time>2016-03-05T10:40:43Z</time>
      </trkpt>
      <trkpt lat="47.50162" lon="7.29945">
        <ele>487.4</ele>
        <time>2016-03-05T10:40:56Z</time>
      </trkpt>
      <trkpt lat="47.5018" lon="7.29937">
        <ele>484.99</ele>
        <time>2016-03-05T10:42:16Z</time>
      </trkpt>
      <trkpt lat="47.5019" lon="7.29914">
        <ele>484.72</ele>
        <time>2016-03-05T10:42:26Z</time>
      </trkpt>
      <trkpt lat="47.50199" lon="7.29889">
        <ele>479.98</ele>
        <time>2016-03-05T10:42:39Z</time>
      </trkpt>
      <trkpt lat="47.50207" lon="7.29864">
        <ele>478.07</ele>
        <time>2016-03-05T10:42:49Z</time>
      </trkpt>
      <trkpt lat="47.50212" lon="7.29838">
        <ele>477.53</ele>
        <time>2016-03-05T10:43:00Z</time>
      </trkpt>
      <trkpt lat="47.50197" lon="7.29818">
        <ele>476.83</ele>
        <time>2016-03-05T10:43:12Z</time>
      </trkpt>
      <trkpt lat="47.50179" lon="7.29809">
        <ele>477.72</ele>
        <time>2016-03-05T10:43:23Z</time>
      </trkpt>
      <trkpt lat="47.50161" lon="7.298">
        <ele>478.38</ele>
        <time>2016-03-05T10:43:34Z</time>
      </trkpt>
      <trkpt lat="47.50148" lon="7.29781">
        <ele>479.32</ele>
        <time>2016-03-05T10:43:46Z</time>
      </trkpt>
      <trkpt lat="47.50134" lon="7.29761">
        <ele>481.18</ele>
        <time>2016-03-05T10:43:58Z</time>
      </trkpt>
      <trkpt lat="47.50117" lon="7.29743">
        <ele>482.34</ele>
        <time>2016-03-05T10:44:14Z</time>
      </trkpt>
      <trkpt lat="47.50105" lon="7.29724">
        <ele>483.56</ele>
        <time>2016-03-05T10:44:23Z</time>
      </trkpt>
      <trkpt lat="47.50114" lon="7.29699">
        <ele>485.02</ele>
        <time>2016-03-05T10:44:37Z</time>
      </trkpt>
      <trkpt lat="47.50127" lon="7.29679">
        <ele>485.13</ele>
        <time>2016-03-05T10:44:50Z</time>
      </trkpt>
      <trkpt lat="47.50138" lon="7.29658">
        <ele>483.41</ele>
        <time>2016-03-05T10:45:03Z</time>
      </trkpt>
      <trkpt lat="47.50154" lon="7.29643">
        <ele>482.06</ele>
        <time>2016-03-05T10:45:17Z</time>
      </trkpt>
      <trkpt lat="47.50171" lon="7.2963">
        <ele>480.58</ele>
        <time>2016-03-05T10:45:31Z</time>
      </trkpt>
      <trkpt lat="47.5019" lon="7.2962">
        <ele>479.83</ele>
        <time>2016-03-05T10:45:41Z</time>
      </trkpt>
      <trkpt lat="47.50206" lon="7.29606">
        <ele>479.4</ele>
        <time>2016-03-05T10:45:51Z</time>
      </trkpt>
      <trkpt lat="47.50223" lon="7.29592">
        <ele>478.7</ele>
        <time>2016-03-05T10:46:02Z</time>
      </trkpt>
      <trkpt lat="47.50241" lon="7.29579">
        <ele>478.26</ele>
        <time>2016-03-05T10:46:15Z</time>
      </trkpt>
      <trkpt lat="47.50253" lon="7.2956">
        <ele>477.88</ele>
        <time>2016-03-05T10:46:26Z</time>
      </trkpt>
      <trkpt lat="47.50268" lon="7.29541">
        <ele>477.73</ele>
        <time>2016-03-05T10:46:38Z</time>
      </trkpt>
      <trkpt lat="47.50284" lon="7.29524">
        <ele>477.56</ele>
        <time>2016-03-05T10:46:45Z</time>
      </trkpt>
      <trkpt lat="47.50296" lon="7.29503">
        <ele>477.11</ele>
        <time>2016-03-05T10:46:57Z</time>
      </trkpt>
      <trkpt lat="47.50308" lon="7.2948">
        <ele>476.29</ele>
        <time>2016-03-05T10:47:09Z</time>
      </trkpt>
      <trkpt lat="47.50319" lon="7.29457">
        <ele>476.07</ele>
        <time>2016-03-05T10:47:21Z</time>
      </trkpt>
      <trkpt lat="47.50329" lon="7.29435">
        <ele>476.11</ele>
        <time>2016-03-05T10:47:29Z</time>
      </trkpt>
      <trkpt lat="47.50329" lon="7.29408">
        <ele>475.66</ele>
        <time>2016-03-05T10:47:40Z</time>
      </trkpt>
      <trkpt lat="47.50342" lon="7.29387">
        <ele>475.26</ele>
        <time>2016-03-05T10:47:49Z</time>
      </trkpt>
      <trkpt lat="47.50348" lon="7.29358">
        <ele>478.51</ele>
        <time>2016-03-05T10:48:02Z</time>
      </trkpt>
      <trkpt lat="47.50358" lon="7.29333">
        <ele>480.53</ele>
        <time>2016-03-05T10:48:13Z</time>
      </trkpt>
      <trkpt lat="47.50356" lon="7.29307">
        <ele>482.77</ele>
        <time>2016-03-05T10:48:22Z</time>
      </trkpt>
      <trkpt lat="47.50358" lon="7.29278">
        <ele>483.43</ele>
        <time>2016-03-05T10:48:36Z</time>
      </trkpt>
      <trkpt lat="47.50352" lon="7.29249">
        <ele>483.93</ele>
        <time>2016-03-05T10:48:46Z</time>
      </trkpt>
      <trkpt lat="47.50347" lon="7.2922">
        <ele>485.54</ele>
        <time>2016-03-05T10:49:00Z</time>
      </trkpt>
      <trkpt lat="47.50347" lon="7.29193">
        <ele>486.13</ele>
        <time>2016-03-05T10:49:11Z</time>
      </trkpt>
      <trkpt lat="47.5035" lon="7.29166">
        <ele>487.49</ele>
        <time>2016-03-05T10:49:24Z</time>
      </trkpt>
      <trkpt lat="47.50357" lon="7.29139">
        <ele>488.42</ele>
        <time>2016-03-05T10:49:35Z</time>
      </trkpt>
      <trkpt lat="47.50357" lon="7.29112">
        <ele>489.87</ele>
        <time>2016-03-05T10:49:46Z</time>
      </trkpt>
      <trkpt lat="47.50358" lon="7.29084">
        <ele>492.31</ele>
        <time>2016-03-05T10:49:56Z</time>
      </trkpt>
      <trkpt lat="47.50357" lon="7.29056">
        <ele>496.19</ele>
        <time>2016-03-05T10:50:10Z</time>
      </trkpt>
      <trkpt lat="47.5035" lon="7.29029">
        <ele>497.98</ele>
        <time>2016-03-05T10:50:22Z</time>
      </trkpt>
      <trkpt lat="47.50347" lon="7.29001">
        <ele>499.65</ele>
        <time>2016-03-05T10:50:35Z</time>
      </trkpt>
      <trkpt lat="47.50347" lon="7.28973">
        <ele>499.41</ele>
        <time>2016-03-05T10:50:49Z</time>
      </trkpt>
      <trkpt lat="47.50339" lon="7.28949">
        <ele>499.19</ele>
        <time>2016-03-05T10:51:02Z</time>
      </trkpt>
      <trkpt lat="47.50341" lon="7.28921">
        <ele>501.13</ele>
        <time>2016-03-05T10:51:12Z</time>
      </trkpt>
      <trkpt lat="47.50341" lon="7.28894">
        <ele>500.71</ele>
        <time>2016-03-05T10:51:22Z</time>
      </trkpt>
      <trkpt lat="47.50343" lon="7.28867">
        <ele>501.65</ele>
        <time>2016-03-05T10:51:40Z</time>
      </trkpt>
      <trkpt lat="47.50337" lon="7.28839">
        <ele>502.42</ele>
        <time>2016-03-05T10:51:49Z</time>
      </trkpt>
      <trkpt lat="47.50324" lon="7.28816">
        <ele>502.3</ele>
        <time>2016-03-05T10:51:56Z</time>
      </trkpt>
      <trkpt lat="47.50313" lon="7.28793">
        <ele>503.06</ele>
        <time>2016-03-05T10:52:09Z</time>
      </trkpt>
      <trkpt lat="47.50307" lon="7.28767">
        <ele>504.64</ele>
        <time>2016-03-05T10:52:19Z</time>
      </trkpt>
      <trkpt lat="47.50319" lon="7.28744">
        <ele>505.01</ele>
        <time>2016-03-05T10:52:33Z</time>
      </trkpt>
      <trkpt lat="47.50335" lon="7.2873">
        <ele>505.57</ele>
        <time>2016-03-05T10:52:44Z</time>
      </trkpt>
      <trkpt lat="47.50353" lon="7.28724">
        <ele>507.6</ele>
        <time>2016-03-05T10:52:56Z</time>
      </trkpt>
      <trkpt lat="47.50369" lon="7.2871">
        <ele>508.78</ele>
        <time>2016-03-05T10:53:06Z</time>
      </trkpt>
      <trkpt lat="47.50384" lon="7.28694">
        <ele>508.22</ele>
        <time>2016-03-05T10:53:18Z</time>
      </trkpt>
      <trkpt lat="47.50397" lon="7.28675">
        <ele>504.73</ele>
        <time>2016-03-05T10:53:29Z</time>
      </trkpt>
      <trkpt lat="47.50409" lon="7.28652">
        <ele>501.69</ele>
        <time>2016-03-05T10:53:40Z</time>
      </trkpt>
      <trkpt lat="47.50423" lon="7.28633">
        <ele>499.76</ele>
        <time>2016-03-05T10:53:49Z</time>
      </trkpt>
      <trkpt lat="47.50432" lon="7.2861">
        <ele>496.25</ele>
        <time>2016-03-05T10:54:03Z</time>
      </trkpt>
      <trkpt lat="47.50448" lon="7.28591">
        <ele>494.68</ele>
        <time>2016-03-05T10:54:12Z</time>
      </trkpt>
      <trkpt lat="47.50461" lon="7.28572">
        <ele>493.42</ele>
        <time>2016-03-05T10:54:21Z</time>
      </trkpt>
      <trkpt lat="47.50475" lon="7.28554">
        <ele>493.07</ele>
        <time>2016-03-05T10:54:34Z</time>
      </trkpt>
      <trkpt lat="47.50484" lon="7.28531">
        <ele>494.57</ele>
        <time>2016-03-05T10:54:44Z</time>
      </trkpt>
      <trkpt lat="47.50492" lon="7.28506">
        <ele>492.57</ele>
        <time>2016-03-05T10:54:56Z</time>
      </trkpt>
      <trkpt lat="47.50493" lon="7.28478">
        <ele>489.9</ele>
        <time>2016-03-05T10:55:07Z</time>
      </trkpt>
      <trkpt lat="47.50491" lon="7.28452">
        <ele>488.85</ele>
        <time>2016-03-05T10:55:16Z</time>
      </trkpt>
      <trkpt lat="47.50505" lon="7.28434">
        <ele>488.12</ele>
        <time>2016-03-05T10:55:27Z</time>
      </trkpt>
      <trkpt lat="47.50512" lon="7.28408">
        <ele>487.94</ele>
        <time>2016-03-05T10:55:38Z</time>
      </trkpt>
      <trkpt lat="47.50505" lon="7.28375">
        <ele>487.4</ele>
        <time>2016-03-05T10:55:49Z</time>
      </trkpt>
      <trkpt lat="47.50503" lon="7.28345">
        <ele>487.87</ele>
        <time>2016-03-05T10:55:56Z</time>
      </trkpt>
      <trkpt lat="47.5051" lon="7.28319">
        <ele>488.91</ele>
        <time>2016-03-05T10:56:05Z</time>
      </trkpt>
      <trkpt lat="47.5051" lon="7.2829">
        <ele>491.77</ele>
        <time>2016-03-05T10:56:17Z</time>
      </trkpt>
      <trkpt lat="47.50521" lon="7.28267">
        <ele>493.22</ele>
        <time>2016-03-05T10:56:28Z</time>
      </trkpt>
      <trkpt lat="47.50526" lon="7.28236">
        <ele>493.49</ele>
        <time>2016-03-05T10:56:46Z</time>
      </trkpt>
      <trkpt lat="47.50526" lon="7.28209">
        <ele>492.45</ele>
        <time>2016-03-05T10:56:58Z</time>
      </trkpt>
      <trkpt lat="47.50534" lon="7.28183">
        <ele>493.15</ele>
        <time>2016-03-05T10:57:09Z</time>
      </trkpt>
      <trkpt lat="47.5054" lon="7.28156">
        <ele>492.61</ele>
        <time>2016-03-05T10:57:18Z</time>
      </trkpt>
      <trkpt lat="47.50553" lon="7.28134">
        <ele>491.4</ele>
        <time>2016-03-05T10:57:28Z</time>
      </trkpt>
      <trkpt lat="47.5056" lon="7.2811">
        <ele>490.02</ele>
        <time>2016-03-05T10:57:39Z</time>
      </trkpt>
      <trkpt lat="47.50559" lon="7.28081">
        <ele>488.7</ele>
        <time>2016-03-05T10:57:51Z</time>
      </trkpt>
      <trkpt lat="47.50559" lon="7.28052">
        <ele>488.43</ele>
        <time>2016-03-05T10:58:04Z</time>
      </trkpt>
      <trkpt lat="47.50567" lon="7.28026">
        <ele>488.43</ele>
        <time>2016-03-05T10:58:14Z</time>
      </trkpt>
      <trkpt lat="47.50581" lon="7.28008">
        <ele>486.86</ele>
        <time>2016-03-05T10:58:22Z</time>
      </trkpt>
      <trkpt lat="47.50592" lon="7.27986">
        <ele>484.66</ele>
        <time>2016-03-05T10:58:32Z</time>
      </trkpt>
      <trkpt lat="47.50607" lon="7.2797">
        <ele>482.64</ele>
        <time>2016-03-05T10:58:41Z</time>
      </trkpt>
      <trkpt lat="47.5061" lon="7.27943">
        <ele>481.4</ele>
        <time>2016-03-05T10:58:51Z</time>
      </trkpt>
      <trkpt lat="47.50624" lon="7.27926">
        <ele>479.92</ele>
        <time>2016-03-05T10:59:05Z</time>
      </trkpt>
      <trkpt lat="47.50633" lon="7.27902">
        <ele>479.06</ele>
        <time>2016-03-05T10:59:15Z</time>
      </trkpt>
      <trkpt lat="47.50645" lon="7.27879">
        <ele>478.18</ele>
        <time>2016-03-05T10:59:25Z</time>
      </trkpt>
      <trkpt lat="47.50661" lon="7.27863">
        <ele>475.68</ele>
        <time>2016-03-05T10:59:37Z</time>
      </trkpt>
      <trkpt lat="47.50676" lon="7.27844">
        <ele>472.89</ele>
        <time>2016-03-05T10:59:49Z</time>
      </trkpt>
      <trkpt lat="47.50683" lon="7.27817">
        <ele>470.15</ele>
        <time>2016-03-05T11:00:00Z</time>
      </trkpt>
      <trkpt lat="47.50693" lon="7.27792">
        <ele>469.29</ele>
        <time>2016-03-05T11:00:12Z</time>
      </trkpt>
      <trkpt lat="47.50708" lon="7.27773">
        <ele>468.22</ele>
        <time>2016-03-05T11:00:23Z</time>
      </trkpt>
      <trkpt lat="47.50723" lon="7.27756">
        <ele>466.82</ele>
        <time>2016-03-05T11:00:34Z</time>
      </trkpt>
      <trkpt lat="47.50736" lon="7.27736">
        <ele>465.44</ele>
        <time>2016-03-05T11:00:44Z</time>
      </trkpt>
      <trkpt lat="47.50749" lon="7.27717">
        <ele>463.9</ele>
        <time>2016-03-05T11:00:58Z</time>
      </trkpt>
      <trkpt lat="47.50765" lon="7.27701">
        <ele>462.4</ele>
        <time>2016-03-05T11:01:09Z</time>
      </trkpt>
      <trkpt lat="47.50783" lon="7.27695">
        <ele>462.26</ele>
        <time>2016-03-05T11:01:19Z</time>
      </trkpt>
      <trkpt lat="47.508" lon="7.27685">
        <ele>461.47</ele>
        <time>2016-03-05T11:01:34Z</time>
      </trkpt>
      <trkpt lat="47.50819" lon="7.27683">
        <ele>460.44</ele>
        <time>2016-03-05T11:01:45Z</time>
      </trkpt>
      <trkpt lat="47.50837" lon="7.27673">
        <ele>459.98</ele>
        <time>2016-03-05T11:01:57Z</time>
      </trkpt>
      <trkpt lat="47.50855" lon="7.27662">
        <ele>460.18</ele>
        <time>2016-03-05T11:02:08Z</time>
      </trkpt>
      <trkpt lat="47.50859" lon="7.27635">
        <ele>459.53</ele>
        <time>2016-03-05T11:02:20Z</time>
      </trkpt>
      <trkpt lat="47.50854" lon="7.2761">
        <ele>458.49</ele>
        <time>2016-03-05T11:02:30Z</time>
      </trkpt>
      <trkpt lat="47.50846" lon="7.27585">
        <ele>457.77</ele>
        <time>2016-03-05T11:02:39Z</time>
      </trkpt>
      <trkpt lat="47.50837" lon="7.27561">
        <ele>457.36</ele>
        <time>2016-03-05T11:02:50Z</time>
      </trkpt>
      <trkpt lat="47.50827" lon="7.27535">
        <ele>456.66</ele>
        <time>2016-03-05T11:03:02Z</time>
      </trkpt>
      <trkpt lat="47.50821" lon="7.27507">
        <ele>455.79</ele>
        <time>2016-03-05T11:03:12Z</time>
      </trkpt>
      <trkpt lat="47.50814" lon="7.27482">
        <ele>456.78</ele>
        <time>2016-03-05T11:03:23Z</time>
      </trkpt>
      <trkpt lat="47.50806" lon="7.27458">
        <ele>456.71</ele>
        <time>2016-03-05T11:03:33Z</time>
      </trkpt>
      <trkpt lat="47.50796" lon="7.27435">
        <ele>456.83</ele>
        <time>2016-03-05T11:03:44Z</time>
      </trkpt>
      <trkpt lat="47.50784" lon="7.27413">
        <ele>456.94</ele>
        <time>2016-03-05T11:03:56Z</time>
      </trkpt>
      <trkpt lat="47.5077" lon="7.27395">
        <ele>457.34</ele>
        <time>2016-03-05T11:04:06Z</time>
      </trkpt>
      <trkpt lat="47.50759" lon="7.27373">
        <ele>457.3</ele>
        <time>2016-03-05T11:04:15Z</time>
      </trkpt>
      <trkpt lat="47.50753" lon="7.27347">
        <ele>458.34</ele>
        <time>2016-03-05T11:04:26Z</time>
      </trkpt>
      <trkpt lat="47.50751" lon="7.27321">
        <ele>459.45</ele>
        <time>2016-03-05T11:04:37Z</time>
      </trkpt>
      <trkpt lat="47.5075" lon="7.27292">
        <ele>459.05</ele>
        <time>2016-03-05T11:04:50Z</time>
      </trkpt>
      <trkpt lat="47.50742" lon="7.27266">
        <ele>459.6</ele>
        <time>2016-03-05T11:04:59Z</time>
      </trkpt>
      <trkpt lat="47.50737" lon="7.27239">
        <ele>460.83</ele>
        <time>2016-03-05T11:05:12Z</time>
      </trkpt>
      <trkpt lat="47.5073" lon="7.27215">
        <ele>460.93</ele>
        <time>2016-03-05T11:05:22Z</time>
      </trkpt>
      <trkpt lat="47.50722" lon="7.27189">
        <ele>461.08</ele>
        <time>2016-03-05T11:05:33Z</time>
      </trkpt>
      <trkpt lat="47.50713" lon="7.27166">
        <ele>461.6</ele>
        <time>2016-03-05T11:05:43Z</time>
      </trkpt>
      <trkpt lat="47.507" lon="7.27144">
        <ele>462.23</ele>
        <time>2016-03-05T11:05:54Z</time>
      </trkpt>
      <trkpt lat="47.50687" lon="7.27125">
        <ele>463.14</ele>
        <time>2016-03-05T11:06:03Z</time>
      </trkpt>
      <trkpt lat="47.50672" lon="7.27107">
        <ele>464.66</ele>
        <time>2016-03-05T11:06:15Z</time>
      </trkpt>
      <trkpt lat="47.50661" lon="7.27084">
        <ele>464.98</ele>
        <time>2016-03-05T11:06:26Z</time>
      </trkpt>
      <trkpt lat="47.5065" lon="7.27061">
        <ele>465.29</ele>
        <time>2016-03-05T11:06:37Z</time>
      </trkpt>
      <trkpt lat="47.50652" lon="7.27033">
        <ele>465.38</ele>
        <time>2016-03-05T11:06:52Z</time>
      </trkpt>
      <trkpt lat="47.50656" lon="7.27007">
        <ele>466.8</ele>
        <time>2016-03-05T11:07:04Z</time>
      </trkpt>
      <trkpt lat="47.50665" lon="7.26983">
        <ele>468.26</ele>
        <time>2016-03-05T11:07:15Z</time>
      </trkpt>
      <trkpt lat="47.50673" lon="7.26957">
        <ele>469.14</ele>
        <time>2016-03-05T11:07:25Z</time>
      </trkpt>
      <trkpt lat="47.50682" lon="7.26933">
        <ele>470.05</ele>
        <time>2016-03-05T11:07:37Z</time>
      </trkpt>
      <trkpt lat="47.50688" lon="7.26907">
        <ele>469.89</ele>
        <time>2016-03-05T11:07:48Z</time>
      </trkpt>
      <trkpt lat="47.50696" lon="7.2688">
        <ele>469.73</ele>
        <time>2016-03-05T11:08:00Z</time>
      </trkpt>
      <trkpt lat="47.50704" lon="7.26855">
        <ele>470.05</ele>
        <time>2016-03-05T11:08:12Z</time>
      </trkpt>
      <trkpt lat="47.50711" lon="7.2683">
        <ele>470.02</ele>
        <time>2016-03-05T11:08:23Z</time>
      </trkpt>
      <trkpt lat="47.50717" lon="7.26804">
        <ele>469.02</ele>
        <time>2016-03-05T11:08:35Z</time>
      </trkpt>
      <trkpt lat="47.50725" lon="7.26778">
        <ele>467.55</ele>
        <time>2016-03-05T11:08:47Z</time>
      </trkpt>
      <trkpt lat="47.50731" lon="7.26752">
        <ele>466.87</ele>
        <time>2016-03-05T11:08:57Z</time>
      </trkpt>
      <trkpt lat="47.50738" lon="7.26726">
        <ele>466.56</ele>
        <time>2016-03-05T11:09:08Z</time>
      </trkpt>
      <trkpt lat="47.50745" lon="7.26699">
        <ele>466.15</ele>
        <time>2016-03-05T11:09:20Z</time>
      </trkpt>
      <trkpt lat="47.50755" lon="7.26676">
        <ele>465.73</ele>
        <time>2016-03-05T11:09:31Z</time>
      </trkpt>
      <trkpt lat="47.50768" lon="7.26656">
        <ele>465.52</ele>
        <time>2016-03-05T11:09:43Z</time>
      </trkpt>
      <trkpt lat="47.50782" lon="7.26637">
        <ele>465.14</ele>
        <time>2016-03-05T11:09:53Z</time>
      </trkpt>
      <trkpt lat="47.50798" lon="7.26623">
        <ele>464.97</ele>
        <time>2016-03-05T11:10:05Z</time>
      </trkpt>
      <trkpt lat="47.50815" lon="7.26609">
        <ele>464.02</ele>
        <time>2016-03-05T11:10:17Z</time>
      </trkpt>
      <trkpt lat="47.50831" lon="7.26594">
        <ele>462.8</ele>
        <time>2016-03-05T11:10:29Z</time>
      </trkpt>
    </trkseg>
  </trk>
</gpx>